Latest Coastal Weather Observations for Samuel Hill

IDQ60701

Issued at 2:45 pm EST Friday 31 October 2014 (issued every 10 minutes, with the page automatically refreshed every 10 minutes)

About coastal observations | Map of coastal stations | Coastal observations for QLD | Marine services | Other Formats
Station Details ID: 033308 Name: SAMUEL HILL AERO Lat: -22.74 Lon: 150.66 Height: 31.0 m
Data from the previous 72 hours. | See also: Recent months at Samuel Hill
Date/Time
EST
Temp

°C
Wind Pressure Rain
since 9am
mm
Weather Cloud Vis
km
Sea
Height
m
Swell
Dir
 
Speed
knots
Gust
knots
hPa Trend Height
m
Period
s
Dir
31/02:30pm 27.9 NE 9 15 1013.6 - 0.0 - - 10 - - - -
31/02:00pm 28.0 NNE 9 14 1013.7 - 0.0 - - 10 - - - -
31/01:30pm 28.3 NE 10 15 1013.9 - 0.0 - - 10 - - - -
31/01:00pm 28.6 NNE 8 12 1014.3 - 0.0 - - 10 - - - -
31/12:30pm 28.6 NE 8 14 1014.8 - 0.0 - - 10 - - - -
31/12:00pm 29.0 NNE 7 12 1015.0 - 0.0 - - 10 - - - -
31/11:30am 28.3 N 8 13 1015.4 - 0.0 - - 10 - - - -
31/11:00am 28.8 NNE 8 13 1015.6 - 0.0 - - 10 - - - -
31/10:30am 27.8 NE 7 12 1016.0 - 0.0 - Partly cloudy 10 - - - -
31/10:00am 27.6 NE 6 11 1015.9 - 0.0 - - 10 - - - -
31/09:30am 27.0 NE 8 13 1016.1 - 0.0 - Partly cloudy 10 - - - -
31/09:00am 27.0 NE 6 11 1016.5 - 0.0 - - 10 - - - -
31/08:30am 25.9 NNE 6 10 1016.4 - 0.0 - Partly cloudy 10 - - - -
31/08:00am 24.1 ENE 6 9 1016.3 - 0.0 - Partly cloudy 10 - - - -
31/07:30am 24.5 E 3 6 1016.2 - 0.0 - - 10 - - - -
31/07:00am 21.5 CALM 0 0 1016.1 - 0.0 - - 10 - - - -
31/06:30am 18.5 CALM 0 0 1015.8 - 0.0 - - 10 - - - -
31/06:00am 16.4 ESE 2 4 1015.6 - 0.0 - Mostly clear 10 - - - -
31/05:30am 14.9 CALM 0 0 1015.1 - 0.0 - - 10 - - - -
31/05:00am 14.7 CALM 0 0 1014.8 - 0.0 - - 10 - - - -
31/04:50am 15.1 CALM 0 0 1014.6 - 0.0 - - 10 - - - -
31/04:38am 14.8 CALM 0 0 1014.4 - 0.0 - - 7 - - - -
31/04:30am 14.8 CALM 0 0 1014.4 - 0.0 - - 10 - - - -
31/04:00am 15.9 CALM 0 0 1014.5 - 0.0 - Partly cloudy 10 - - - -
31/03:30am 16.0 SSW 1 3 1014.4 - 0.0 - Partly cloudy 10 - - - -
31/03:28am 16.2 SSW 1 3 1014.4 - 0.0 - Partly cloudy 10 - - - -
31/03:10am 16.2 SW 4 5 1014.3 - 0.0 - - 7 - - - -
31/03:00am 15.2 CALM 0 0 1014.1 - 0.0 - - 10 - - - -
31/02:30am 16.1 CALM 0 0 1014.2 - 0.0 - - 10 - - - -
31/02:00am 15.8 CALM 0 0 1014.2 - 0.0 - - 10 - - - -
31/01:30am 16.1 CALM 0 4 1014.7 - 0.0 - Partly cloudy 10 - - - -
31/01:00am 15.9 CALM 0 0 1014.6 - 0.0 - - 10 - - - -
31/12:36am 16.7 CALM 0 0 1015.1 - 0.0 - - 10 - - - -
31/12:30am 17.0 CALM 0 0 1015.2 - 0.0 - - 8 - - - -
31/12:22am 16.6 CALM 0 0 1015.2 - 0.0 - - 7 - - - -
31/12:00am 17.5 S 1 4 1015.4 - 0.0 - - 10 - - - -
 
Date/Time
EST
Temp

°C
Wind Pressure Rain
since 9am
mm
Weather Cloud Vis
km
Sea
Height
m
Swell
Dir
 
Speed
knots
Gust
knots
hPa Trend Height
m
Period
s
Dir
30/11:30pm 17.9 SW 3 4 1015.2 - 0.0 - - 10 - - - -
30/11:00pm 17.4 CALM 0 0 1015.0 - 0.0 - - 10 - - - -
30/10:30pm 17.7 CALM 0 0 1015.2 - 0.0 - Partly cloudy 10 - - - -
30/10:00pm 18.6 CALM 0 0 1015.6 - 0.0 - Partly cloudy 10 - - - -
30/09:30pm 18.9 CALM 0 0 1015.5 - 0.0 - Partly cloudy 10 - - - -
30/09:00pm 20.3 CALM 0 3 1015.5 - 0.0 - Mostly clear 10 - - - -
30/08:30pm 20.2 NNE 1 3 1015.1 - 0.0 - - 10 - - - -
30/08:00pm 20.9 N 2 3 1014.8 - 0.0 - - 10 - - - -
30/07:30pm 21.6 N 3 4 1014.6 - 0.0 - Partly cloudy 10 - - - -
30/07:00pm 22.3 N 3 4 1014.4 - 0.0 - - 10 - - - -
30/06:30pm 23.2 NE 5 8 1014.2 - 0.0 - - 10 - - - -
30/06:00pm 24.0 NE 7 10 1013.9 - 0.0 - Mostly clear 10 - - - -
30/05:30pm 24.8 NNE 8 11 1013.5 - 0.0 - - 10 - - - -
30/05:00pm 25.8 NNE 8 12 1013.1 - 0.0 - Partly cloudy 10 - - - -
30/04:30pm 26.2 NNE 8 13 1012.7 - 0.0 - - 10 - - - -
30/04:00pm 27.4 NNE 9 13 1012.6 - 0.0 - - 10 - - - -
30/03:30pm 27.5 NE 10 13 1012.5 - 0.0 - - 10 - - - -
30/03:00pm 28.5 NNE 9 13 1012.6 - 0.0 - - 10 - - - -
30/02:30pm 28.0 NNE 9 14 1012.8 - 0.0 - - 10 - - - -
30/02:00pm 28.9 NE 8 14 1013.0 - 0.0 - - 10 - - - -
30/01:30pm 28.8 NNE 9 16 1013.3 - 0.0 - - 10 - - - -
30/01:00pm 29.2 NNE 10 15 1013.6 - 0.0 - - 10 - - - -
30/12:30pm 29.4 N 11 18 1014.0 - 0.0 - - 10 - - - -
30/12:00pm 28.9 ENE 10 14 1014.5 - 0.0 - - 10 - - - -
30/11:30am 28.6 N 9 13 1014.7 - 0.0 - - 10 - - - -
30/11:00am 29.0 NE 8 12 1014.8 - 0.0 - - 10 - - - -
30/10:30am 28.5 NNE 8 12 1014.9 - 0.0 - - 10 - - - -
30/10:00am 28.9 NE 7 11 1015.2 - 0.0 - - 10 - - - -
30/09:30am 28.3 NE 5 10 1015.5 - 0.0 - - 10 - - - -
30/09:00am 28.1 ENE 6 9 1015.8 - 0.0 - - 10 - - - -
30/08:30am 26.9 NE 6 8 1016.1 - 0.0 - - 10 - - - -
30/08:00am 25.3 NE 7 11 1016.3 - 0.0 - - 10 - - - -
30/07:30am 23.7 CALM 0 3 1016.6 - 0.0 - - 10 - - - -
30/07:00am 21.3 CALM 0 0 1016.5 - 0.0 - Partly cloudy 10 - - - -
30/06:46am 20.2 CALM 0 0 1016.5 - 0.0 - Partly cloudy 10 - - - -
30/06:35am 19.1 CALM 0 1 1016.5 - 0.0 - Partly cloudy 7 - - - -
30/06:30am 18.7 CALM 0 1 1016.4 - 0.0 - Partly cloudy 9 - - - -
30/06:18am 18.0 CALM 0 0 1016.5 - 0.0 - Partly cloudy 9 - - - -
30/06:00am 17.3 CALM 0 0 1016.3 - 0.0 - Cloudy 5 - - - -
30/05:30am 16.3 CALM 0 0 1015.8 - 0.0 - Partly cloudy 0.4 - - - -
30/05:00am 16.1 CALM 0 0 1015.4 - 0.0 - Cloudy 0.2 - - - -
30/04:30am 16.2 CALM 0 0 1014.9 - 0.0 - Cloudy 0.7 - - - -
30/04:00am 16.0 CALM 0 0 1014.5 - 0.0 - Partly cloudy 8 - - - -
30/03:30am 16.1 CALM 0 0 1014.1 - 0.0 - Partly cloudy 6 - - - -
30/03:22am 16.3 CALM 0 2 1014.1 - 0.0 - Partly cloudy 5 - - - -
30/03:13am 16.7 SW 1 4 1014.0 - 0.0 - Partly cloudy 7 - - - -
30/03:12am 16.9 WSW 1 4 1014.0 - 0.0 - Partly cloudy 8 - - - -
30/03:00am 16.9 CALM 0 0 1013.8 - 0.0 - Mostly clear 7 - - - -
30/02:30am 17.3 SW 2 4 1013.5 - 0.0 - - 0.6 - - - -
30/02:00am 17.1 CALM 0 0 1013.3 - 0.0 - - 7 - - - -
30/01:57am 17.2 CALM 0 0 1013.4 - 0.0 - - 9 - - - -
30/01:30am 17.7 CALM 0 0 1013.5 - 0.0 - - 6 - - - -
30/01:20am 18.0 CALM 0 0 1013.6 - 0.0 - - 7 - - - -
30/01:14am 18.4 CALM 0 0 1013.7 - 0.0 - - 8 - - - -
30/01:00am 18.3 CALM 0 0 1013.7 - 0.0 - - 5 - - - -
30/12:53am 18.3 CALM 0 0 1013.7 - 0.0 - - 7 - - - -
30/12:38am 18.2 SSE 3 4 1013.9 - 0.0 - - 10 - - - -
30/12:30am 18.6 NNE 2 4 1013.9 - 0.0 - - 9 - - - -
30/12:14am 18.8 N 1 3 1013.9 - 0.0 - - 7 - - - -
30/12:00am 18.7 NNE 3 4 1013.9 - 0.0 - - 10 - - - -
 
Date/Time
EST
Temp

°C
Wind Pressure Rain
since 9am
mm
Weather Cloud Vis
km
Sea
Height
m
Swell
Dir
 
Speed
knots
Gust
knots
hPa Trend Height
m
Period
s
Dir
29/11:30pm 19.0 N 3 3 1014.2 - 0.0 - - 10 - - - -
29/11:26pm 19.1 N 2 3 1014.2 - 0.0 - - 10 - - - -
29/11:09pm 19.4 CALM 0 1 1014.2 - 0.0 - Partly cloudy 7 - - - -
29/11:04pm 19.7 CALM 0 0 1014.3 - 0.0 - Partly cloudy 9 - - - -
29/11:00pm 19.8 CALM 0 0 1014.3 - 0.0 - Partly cloudy 10 - - - -
29/10:44pm 20.0 N 3 3 1014.4 - 0.0 - Partly cloudy 5 - - - -
29/10:30pm 20.4 CALM 0 1 1014.3 - 0.0 - - 10 - - - -
29/10:00pm 21.7 N 3 5 1014.1 - 0.0 - - 10 - - - -
29/09:30pm 22.4 WNW 5 6 1014.0 - 0.0 - - 10 - - - -
29/09:00pm 22.6 NW 5 7 1013.9 - 0.0 - - 10 - - - -
29/08:30pm 22.7 NW 5 8 1013.7 - 0.0 - - 10 - - - -
29/08:00pm 22.7 NNW 4 5 1013.6 - 0.0 - - 10 - - - -
29/07:30pm 23.1 N 4 6 1013.2 - 0.0 - - 10 - - - -
29/07:00pm 23.9 N 4 7 1012.8 - 0.0 - - 10 - - - -
29/06:30pm 24.7 NNW 5 8 1012.5 - 0.0 - - 10 - - - -
29/06:00pm 25.6 NNW 7 11 1012.2 - 0.0 - - 10 - - - -
29/05:30pm 27.0 NNW 7 11 1011.9 - 0.0 - - 10 - - - -
29/05:00pm 28.2 NNW 9 13 1011.6 - 0.0 - - 10 - - - -
29/04:30pm 29.0 NNW 9 11 1011.4 - 0.0 - - 10 - - - -
29/04:00pm 29.4 N 9 13 1011.2 - 0.0 - - 10 - - - -
29/03:30pm 30.2 N 9 13 1011.2 - 0.0 - - 10 - - - -
29/03:00pm 30.4 N 11 15 1011.3 - 0.0 - - 10 - - - -
29/02:30pm 31.0 N 10 15 1011.3 - 0.0 - - 10 - - - -
29/02:00pm 32.3 N 10 15 1011.4 - 0.0 - - 10 - - - -
29/01:30pm 30.8 NNW 10 15 1011.5 - 0.0 - - 10 - - - -
29/01:00pm 31.2 N 9 14 1011.7 - 0.0 - - 10 - - - -
29/12:30pm 30.4 N 11 15 1011.9 - 0.0 - - 10 - - - -
29/12:00pm 29.8 N 11 18 1012.3 - 0.0 - - 10 - - - -
29/11:30am 30.4 N 11 15 1012.7 - 0.0 - - 10 - - - -
29/11:00am 30.2 N 10 14 1012.8 - 0.0 - - 10 - - - -
29/10:30am 30.1 NNW 8 13 1013.2 - 0.0 - - 10 - - - -
29/10:00am 28.8 NNW 9 13 1013.6 - 0.0 - - 10 - - - -
29/09:30am 28.4 NNW 7 13 1014.0 - 0.0 - - 10 - - - -
29/09:00am 27.9 NNW 7 13 1014.2 - 0.0 - - 10 - - - -
29/08:30am 27.0 NNW 9 13 1014.3 - 0.0 - - 10 - - - -
29/08:00am 26.1 NW 7 12 1014.1 - 0.0 - - 10 - - - -
29/07:30am 24.3 NNW 5 10 1014.1 - 0.0 - - 10 - - - -
29/07:00am 21.6 CALM 0 0 1013.9 - 0.0 - - 10 - - - -
29/06:30am 20.0 NW 1 4 1013.5 - 0.0 - - 10 - - - -
29/06:27am 20.0 NW 1 4 1013.5 - 0.0 - - 10 - - - -
29/06:11am 19.7 NW 1 3 1013.6 - 0.0 - - 7 - - - -
29/06:00am 20.0 WNW 3 4 1013.7 - 0.0 - - 10 - - - -
29/05:30am 20.0 CALM 0 0 1013.6 - 0.0 - Partly cloudy 8 - - - -
29/05:00am 20.1 ESE 3 5 1013.2 - 0.0 - Partly cloudy 10 - - - -
29/04:30am 20.2 SSE 3 4 1013.0 - 0.0 - Cloudy 10 - - - -
29/04:04am 20.5 SW 1 4 1012.6 - 0.0 - Partly cloudy 10 - - - -
29/04:00am 20.7 SW 2 5 1012.5 - 0.0 - Partly cloudy 9 - - - -
29/03:48am 20.5 CALM 0 0 1012.2 - 0.0 - - 7 - - - -
29/03:30am 20.8 N 1 4 1011.8 - 0.0 - - 10 - - - -
29/03:00am 21.5 N 2 5 1011.5 - 0.0 - - 10 - - - -
29/02:30am 21.7 NNW 6 11 1011.4 - 0.0 - - 10 - - - -
29/02:00am 21.4 NNW 7 11 1011.9 - 0.0 - - 10 - - - -
29/01:30am 21.1 NNW 7 10 1012.5 - 0.0 - - 10 - - - -
29/01:00am 20.6 NW 4 8 1012.8 - 0.0 - - 10 - - - -
29/12:30am 20.6 NW 4 5 1013.3 - 0.0 - - 10 - - - -
29/12:00am 20.7 WNW 4 5 1013.1 - 0.0 - Cloudy 10 - - - -
 
Date/Time
EST
Temp

°C
Wind Pressure Rain
since 9am
mm
Weather Cloud Vis
km
Sea
Height
m
Swell
Dir
 
Speed
knots
Gust
knots
hPa Trend Height
m
Period
s
Dir
28/11:30pm 20.8 NW 2 5 1013.3 - 0.0 - - 10 - - - -
28/11:00pm 20.9 N 5 9 1013.6 - 0.0 - - 10 - - - -
28/10:30pm 21.0 NW 3 8 1014.3 - 0.0 - - 10 - - - -
28/10:00pm 22.0 S 4 5 1014.5 - 0.0 - Partly cloudy 10 - - - -
28/09:48pm 22.6 SW 6 11 1014.9 - 0.0 - Partly cloudy 10 - - - -
28/09:30pm 22.7 NW 6 11 1014.2 - 0.0 - Partly cloudy 10 - - - -
28/09:21pm 22.7 SSW 10 14 1015.2 - 0.0 - Partly cloudy 10 - - - -
28/09:00pm 22.2 NNW 7 11 1013.1 - 0.0 - - 10 - - - -
28/08:30pm 22.2 NNW 5 9 1012.9 - 0.0 - - 10 - - - -
28/08:00pm 22.4 NNW 5 8 1012.7 - 0.0 - - 10 - - - -
28/07:30pm 22.8 NNW 6 10 1012.3 - 0.0 - - 10 - - - -
28/07:00pm 23.2 NNW 7 11 1011.9 - 0.0 - - 10 - - - -
28/06:30pm 23.6 NNW 7 13 1011.5 - 0.0 - - 10 - - - -
28/06:00pm 24.5 NNW 9 13 1011.3 - 0.0 - - 10 - - - -
28/05:30pm 25.9 NNW 9 14 1010.9 - 0.0 - - 10 - - - -
28/05:00pm 26.8 NNW 10 16 1011.0 - 0.0 - - 10 - - - -
28/04:30pm 27.6 NNW 11 17 1010.9 - 0.0 - - 10 - - - -
28/04:00pm 28.7 NNW 10 15 1010.9 - 0.0 - - 10 - - - -
28/03:30pm 29.1 NNW 11 19 1010.9 - 0.0 - - 10 - - - -
28/03:00pm 29.4 NNW 13 19 1011.0 - 0.0 - - 10 - - - -

Other Formats:

Comma delimited format used in spreadsheet applications
http://www.bom.gov.au/fwo/IDQ60701/IDQ60701.94370.axf

JavaScript Object Notation format (JSON) in row-major order
http://www.bom.gov.au/fwo/IDQ60701/IDQ60701.94370.json